createdAt,value
2019-02-25T00:00:45.356Z,23.63
2019-02-25T00:03:17.098Z,23.07
2019-02-25T00:05:50.166Z,24.33
2019-02-25T00:08:21.917Z,23.77
2019-02-25T00:10:53.560Z,22.17
2019-02-25T00:13:31.110Z,21.77
2019-02-25T00:16:03.050Z,23.00
2019-02-25T00:18:34.772Z,22.37
2019-02-25T00:21:06.572Z,23.30
2019-02-25T00:23:38.402Z,23.37
2019-02-25T00:26:10.238Z,22.87
2019-02-25T00:28:42.149Z,22.13
2019-02-25T00:31:13.878Z,24.43
2019-02-25T00:33:45.665Z,22.73
2019-02-25T00:36:17.478Z,23.57
2019-02-25T00:38:49.370Z,24.57
2019-02-25T00:41:21.187Z,24.27
2019-02-25T00:43:54.306Z,24.00
2019-02-25T00:46:26.037Z,25.03
2019-02-25T00:48:57.929Z,24.57
2019-02-25T00:51:29.718Z,24.53
2019-02-25T00:54:01.629Z,24.13
2019-02-25T00:56:33.459Z,24.87
2019-02-25T00:59:05.159Z,23.87
2019-02-25T01:01:37.005Z,22.73
2019-02-25T01:04:08.772Z,23.13
2019-02-25T01:06:40.436Z,25.00
2019-02-25T01:09:12.470Z,23.73
2019-02-25T01:11:44.257Z,22.90
2019-02-25T01:14:16.004Z,24.33
2019-02-25T01:16:47.741Z,22.67
2019-02-25T01:19:19.532Z,22.90
2019-02-25T01:21:51.400Z,23.50
2019-02-25T01:24:23.195Z,22.73
2019-02-25T01:26:54.942Z,22.27
2019-02-25T01:29:26.732Z,23.03
2019-02-25T01:31:58.550Z,24.23
2019-02-25T01:34:34.171Z,22.33
2019-02-25T01:37:06.103Z,24.20
2019-02-25T01:39:38.062Z,24.57
2019-02-25T01:42:11.298Z,24.93
2019-02-25T01:44:44.005Z,23.93
2019-02-25T01:47:15.849Z,23.93
2019-02-25T01:49:47.491Z,24.57
2019-02-25T01:52:19.193Z,23.83
2019-02-25T01:54:50.942Z,23.27
2019-02-25T01:57:22.766Z,22.60
2019-02-25T01:59:54.514Z,24.30
2019-02-25T02:02:26.394Z,23.03
2019-02-25T02:04:58.071Z,24.00
2019-02-25T02:07:29.755Z,23.03
2019-02-25T02:10:01.461Z,23.17
2019-02-25T02:12:33.411Z,22.37
2019-02-25T02:15:05.661Z,20.57
2019-02-25T02:17:37.417Z,21.77
2019-02-25T02:20:09.682Z,21.07
2019-02-25T02:22:41.531Z,22.23
2019-02-25T02:25:13.817Z,21.43
2019-02-25T02:27:45.779Z,22.17
2019-02-25T02:30:18.232Z,21.63
2019-02-25T02:32:50.088Z,21.47
2019-02-25T02:35:21.753Z,21.17
2019-02-25T02:37:53.702Z,20.60
2019-02-25T02:40:25.324Z,20.43
2019-02-25T02:42:58.036Z,19.47
2019-02-25T02:46:01.261Z,20.60
2019-02-25T02:48:40.286Z,19.90
2019-02-25T02:51:11.958Z,19.50
2019-02-25T02:53:43.691Z,19.87
2019-02-25T02:56:15.569Z,19.07
2019-02-25T02:58:47.497Z,19.17
2019-02-25T03:01:19.223Z,17.80
2019-02-25T03:03:51.086Z,19.40
2019-02-25T03:06:23.838Z,18.93
2019-02-25T03:08:55.781Z,19.13
2019-02-25T03:11:27.488Z,19.33
2019-02-25T03:13:59.272Z,20.13
2019-02-25T03:16:30.958Z,20.20
2019-02-25T03:19:02.597Z,18.93
2019-02-25T03:21:34.243Z,18.00
2019-02-25T03:24:06.120Z,18.93
2019-02-25T03:26:37.989Z,18.80
2019-02-25T03:29:10.795Z,18.53
2019-02-25T03:31:42.795Z,18.77
2019-02-25T03:34:14.578Z,18.43
2019-02-25T03:36:46.216Z,18.83
2019-02-25T03:39:18.012Z,19.23
2019-02-25T03:41:50.176Z,18.33
2019-02-25T03:44:21.900Z,19.00
2019-02-25T03:46:53.795Z,19.67
2019-02-25T03:49:25.985Z,19.77
2019-02-25T03:51:57.761Z,20.27
2019-02-25T03:54:29.581Z,18.67
2019-02-25T03:57:01.949Z,18.57
2019-02-25T03:59:33.919Z,20.70
2019-02-25T04:02:05.685Z,19.93
2019-02-25T04:04:37.417Z,19.63
2019-02-25T04:07:10.006Z,20.40
2019-02-25T04:09:41.680Z,19.73
2019-02-25T04:12:13.511Z,18.53
2019-02-25T04:14:45.196Z,19.67
2019-02-25T04:17:16.929Z,19.97
2019-02-25T04:19:48.925Z,20.57
2019-02-25T04:22:20.657Z,18.70
2019-02-25T04:24:52.316Z,20.77
2019-02-25T04:27:24.109Z,20.40
2019-02-25T04:29:56.011Z,19.90
2019-02-25T04:32:27.735Z,18.93
2019-02-25T04:34:59.682Z,20.50
2019-02-25T04:37:31.577Z,19.23
2019-02-25T04:40:03.361Z,19.23
2019-02-25T04:42:35.210Z,19.07
2019-02-25T04:45:08.831Z,19.23
2019-02-25T04:47:40.614Z,20.03
2019-02-25T04:50:13.342Z,19.27
2019-02-25T04:52:45.255Z,19.20
2019-02-25T04:55:17.234Z,19.17
2019-02-25T04:57:49.430Z,18.47
2019-02-25T05:00:21.090Z,18.37
2019-02-25T05:02:52.951Z,18.47
2019-02-25T05:05:24.741Z,18.33
2019-02-25T05:07:56.649Z,18.87
2019-02-25T05:10:28.339Z,19.43
2019-02-25T05:13:05.028Z,19.47
2019-02-25T05:15:37.717Z,18.33
2019-02-25T05:18:09.439Z,18.90
2019-02-25T05:20:41.161Z,18.67
2019-02-25T05:23:12.854Z,18.43
2019-02-25T05:25:44.602Z,18.30
2019-02-25T05:28:16.358Z,18.23
2019-02-25T05:30:48.220Z,17.97
2019-02-25T05:33:19.981Z,18.17
2019-02-25T05:35:51.936Z,18.57
2019-02-25T05:38:23.721Z,18.83
2019-02-25T05:40:55.538Z,18.30
2019-02-25T05:43:27.323Z,18.33
2019-02-25T05:46:00.249Z,17.67
2019-02-25T05:48:32.130Z,18.23
2019-02-25T05:51:03.960Z,17.47
2019-02-25T05:53:35.762Z,18.13
2019-02-25T05:56:07.508Z,19.80
2019-02-25T05:58:39.262Z,19.77
2019-02-25T06:01:11.164Z,18.20
2019-02-25T06:03:42.879Z,19.77
2019-02-25T06:06:14.549Z,19.13
2019-02-25T06:08:46.325Z,19.87
2019-02-25T06:11:18.094Z,20.00
2019-02-25T06:13:49.777Z,18.87
2019-02-25T06:16:21.551Z,19.27
2019-02-25T06:18:53.371Z,20.83
2019-02-25T06:21:25.122Z,19.23
2019-02-25T06:23:56.846Z,19.83
2019-02-25T06:26:28.639Z,20.43
2019-02-25T06:29:00.375Z,19.77
2019-02-25T06:31:32.285Z,20.77
2019-02-25T06:34:05.140Z,19.77
2019-02-25T06:36:37.013Z,20.20
2019-02-25T06:39:09.058Z,20.40
2019-02-25T06:41:40.821Z,20.47
2019-02-25T06:44:12.521Z,20.43
2019-02-25T06:46:44.353Z,19.33
2019-02-25T06:49:16.141Z,19.83
2019-02-25T06:51:47.881Z,19.37
2019-02-25T06:54:19.772Z,20.90
2019-02-25T06:56:51.493Z,19.30
2019-02-25T06:59:23.208Z,20.33
2019-02-25T07:01:54.886Z,20.67
2019-02-25T07:05:01.308Z,20.20
2019-02-25T07:07:53.852Z,20.20
2019-02-25T07:10:56.950Z,19.97
2019-02-25T07:13:47.650Z,20.13
2019-02-25T07:16:37.137Z,20.63
2019-02-25T07:19:40.637Z,20.23
2019-02-25T07:22:30.219Z,21.30
2019-02-25T07:25:39.461Z,21.63
2019-02-25T07:28:36.596Z,20.97
2019-02-25T07:31:45.442Z,19.60
2019-02-25T07:34:43.410Z,18.97
2019-02-25T07:37:28.667Z,21.80
2019-02-25T07:40:08.324Z,21.97
2019-02-25T07:43:11.020Z,21.67
2019-02-25T07:45:52.408Z,21.67
2019-02-25T07:48:42.408Z,21.57
2019-02-25T07:51:36.474Z,25.55
2019-02-25T07:54:33.229Z,22.57
2019-02-25T07:57:20.158Z,21.73
2019-02-25T08:00:28.961Z,22.00
2019-02-25T08:03:28.365Z,21.50
2019-02-25T08:06:28.996Z,21.67
2019-02-25T08:09:31.785Z,20.50
2019-02-25T08:12:31.475Z,22.03
2019-02-25T08:15:12.065Z,23.20
2019-02-25T08:17:56.831Z,22.80
2019-02-25T08:20:59.512Z,23.27
2019-02-25T08:23:48.883Z,22.77
2019-02-25T08:26:39.596Z,22.87
2019-02-25T08:29:30.294Z,24.13
2019-02-25T08:32:19.065Z,21.97
2019-02-25T08:35:25.118Z,23.07
2019-02-25T08:38:30.480Z,23.30
2019-02-25T08:41:24.963Z,23.57
2019-02-25T08:44:27.855Z,23.13
2019-02-25T08:47:21.721Z,22.53
2019-02-25T08:49:56.315Z,22.90
2019-02-25T08:52:28.290Z,23.87
2019-02-25T08:55:00.001Z,23.90
2019-02-25T08:57:32.175Z,23.10
2019-02-25T09:00:04.003Z,23.20
2019-02-25T09:02:37.074Z,24.27
2019-02-25T09:05:10.760Z,22.97
2019-02-25T09:07:42.846Z,23.47
2019-02-25T09:10:15.145Z,22.57
2019-02-25T09:12:48.828Z,24.57
2019-02-25T09:15:20.521Z,23.27
2019-02-25T09:17:50.318Z,22.53
2019-02-25T09:20:22.280Z,22.87
2019-02-25T09:22:54.160Z,23.13
2019-02-25T09:25:26.041Z,24.33
2019-02-25T09:27:58.061Z,23.43
2019-02-25T09:30:29.772Z,22.53
2019-02-25T09:33:01.424Z,23.50
2019-02-25T09:35:33.234Z,23.43
2019-02-25T09:38:05.244Z,22.87
2019-02-25T09:40:37.170Z,23.43
2019-02-25T09:43:08.975Z,24.23
2019-02-25T09:45:40.757Z,23.47
2019-02-25T09:48:12.556Z,23.40
2019-02-25T09:50:44.618Z,22.93
2019-02-25T09:53:16.501Z,24.10
2019-02-25T09:55:48.547Z,23.30
2019-02-25T09:58:20.308Z,24.43
2019-02-25T10:00:52.288Z,23.97
2019-02-25T10:03:24.009Z,22.90
2019-02-25T10:05:55.839Z,24.00
2019-02-25T10:08:27.818Z,24.60
2019-02-25T10:10:59.678Z,24.27
2019-02-25T10:13:31.517Z,23.17
2019-02-25T10:16:03.335Z,23.47
2019-02-25T10:18:35.405Z,22.53
2019-02-25T10:21:07.107Z,23.83
2019-02-25T10:23:40.472Z,23.47
2019-02-25T10:26:12.933Z,23.97
2019-02-25T10:28:44.843Z,24.00
2019-02-25T10:31:17.486Z,23.07
2019-02-25T10:33:50.819Z,23.53
2019-02-25T10:36:22.904Z,24.13
2019-02-25T10:38:54.652Z,24.63
2019-02-25T10:41:27.860Z,24.67
2019-02-25T10:44:00.263Z,24.90
2019-02-25T10:46:33.133Z,24.27
2019-02-25T10:49:11.211Z,23.53
2019-02-25T10:51:40.642Z,24.13
2019-02-25T10:54:11.784Z,24.60
2019-02-25T10:56:57.865Z,23.83
2019-02-25T10:59:31.815Z,23.83
2019-02-25T11:02:03.217Z,25.17
2019-02-25T11:04:34.837Z,25.43
2019-02-25T11:07:07.827Z,25.67
2019-02-25T11:09:59.243Z,24.83
2019-02-25T11:12:32.162Z,23.07
2019-02-25T11:15:05.287Z,24.03
2019-02-25T11:17:37.906Z,25.40
2019-02-25T11:20:10.525Z,25.33
2019-02-25T11:22:43.638Z,25.50
2019-02-25T11:25:16.252Z,24.83
2019-02-25T11:27:48.060Z,25.00
2019-02-25T11:30:21.513Z,25.47
2019-02-25T11:32:55.407Z,25.77
2019-02-25T11:35:26.734Z,25.57
2019-02-25T11:37:59.638Z,24.47
2019-02-25T11:40:33.615Z,27.23
2019-02-25T11:43:05.268Z,26.27
2019-02-25T11:45:37.101Z,26.60
2019-02-25T11:48:08.908Z,26.03
2019-02-25T11:50:40.652Z,27.80
2019-02-25T11:53:12.576Z,28.17
2019-02-25T11:55:44.429Z,26.93
2019-02-25T11:58:16.249Z,27.37
2019-02-25T12:00:47.992Z,27.10
2019-02-25T12:03:19.654Z,27.57
2019-02-25T12:05:52.592Z,29.07
2019-02-25T12:08:24.548Z,26.63
2019-02-25T12:10:56.447Z,28.87
2019-02-25T12:13:29.030Z,27.70
2019-02-25T12:16:00.819Z,28.03
2019-02-25T12:18:32.529Z,28.57
2019-02-25T12:21:04.771Z,29.20
2019-02-25T12:23:36.625Z,30.27
2019-02-25T12:26:08.428Z,31.17
2019-02-25T12:28:40.262Z,30.27
2019-02-25T12:31:12.347Z,30.63
2019-02-25T12:33:44.178Z,30.80
2019-02-25T12:36:15.963Z,32.07
2019-02-25T12:38:47.745Z,31.33
2019-02-25T12:41:19.604Z,30.80
2019-02-25T12:43:51.459Z,31.40
2019-02-25T12:46:23.493Z,31.13
2019-02-25T12:48:55.449Z,31.57
2019-02-25T12:51:28.255Z,30.13
2019-02-25T12:54:00.149Z,30.97
2019-02-25T12:56:32.058Z,30.33
2019-02-25T12:59:05.242Z,30.63
2019-02-25T13:01:37.319Z,30.73
2019-02-25T13:04:09.184Z,30.70
2019-02-25T13:06:40.978Z,31.00
2019-02-25T13:09:15.320Z,31.67
2019-02-25T13:11:46.976Z,31.67
2019-02-25T13:14:19.763Z,31.20
2019-02-25T13:16:51.505Z,32.07
2019-02-25T13:19:23.331Z,31.07
2019-02-25T13:21:54.987Z,32.80
2019-02-25T13:24:28.374Z,30.80
2019-02-25T13:27:01.019Z,31.53
2019-02-25T13:29:33.151Z,32.03
2019-02-25T13:32:04.951Z,29.63
2019-02-25T13:34:36.771Z,31.40
2019-02-25T13:37:08.783Z,31.07
2019-02-25T13:39:40.648Z,31.73
2019-02-25T13:42:12.560Z,29.77
2019-02-25T13:44:44.188Z,31.53
2019-02-25T13:47:16.065Z,31.57
2019-02-25T13:49:47.845Z,31.60
2019-02-25T13:52:19.588Z,31.03
2019-02-25T13:54:51.462Z,30.30
2019-02-25T13:57:23.248Z,30.00
2019-02-25T13:59:55.008Z,31.97
2019-02-25T14:02:26.980Z,31.17
2019-02-25T14:04:58.746Z,31.13
2019-02-25T14:07:30.630Z,31.87
2019-02-25T14:10:02.590Z,31.37
2019-02-25T14:12:35.808Z,31.00
2019-02-25T14:15:08.032Z,31.83
2019-02-25T14:17:40.066Z,33.63
2019-02-25T14:20:13.974Z,33.27
2019-02-25T14:22:45.804Z,33.13
2019-02-25T14:25:19.979Z,32.77
2019-02-25T14:27:53.031Z,35.07
2019-02-25T14:30:26.233Z,35.00
2019-02-25T14:32:58.026Z,33.80
2019-02-25T14:35:29.929Z,34.23
2019-02-25T14:38:07.654Z,33.90
2019-02-25T14:40:39.365Z,35.87
2019-02-25T14:43:12.609Z,34.70
2019-02-25T14:45:45.970Z,34.73
2019-02-25T14:48:20.359Z,35.00
2019-02-25T14:50:50.772Z,35.13
2019-02-25T14:53:22.813Z,36.27
2019-02-25T14:55:56.018Z,36.77
2019-02-25T14:58:31.332Z,36.30
2019-02-25T15:01:01.172Z,37.87
2019-02-25T15:03:33.180Z,36.50
2019-02-25T15:06:06.054Z,36.87
2019-02-25T15:08:37.915Z,36.83
2019-02-25T15:11:11.334Z,38.53
2019-02-25T15:13:43.324Z,37.70
2019-02-25T15:16:16.903Z,38.63
2019-02-25T15:18:48.819Z,38.23
2019-02-25T15:21:20.812Z,37.07
2019-02-25T15:23:53.228Z,40.80
2019-02-25T15:26:25.682Z,38.90
2019-02-25T15:29:00.718Z,39.60
2019-02-25T15:31:33.151Z,39.10
2019-02-25T15:34:05.091Z,38.90
2019-02-25T15:36:37.271Z,40.97
2019-02-25T15:39:11.271Z,41.70
2019-02-25T15:41:44.387Z,41.07
2019-02-25T15:44:16.653Z,41.93
2019-02-25T15:46:48.681Z,42.77
2019-02-25T15:49:21.749Z,44.13
2019-02-25T15:51:54.185Z,45.83
2019-02-25T15:54:28.977Z,45.93
2019-02-25T15:56:59.297Z,47.20
2019-02-25T15:59:32.247Z,46.90
2019-02-25T16:02:05.602Z,47.67
2019-02-25T16:04:38.307Z,49.93
2019-02-25T16:07:12.186Z,49.77
2019-02-25T16:09:44.092Z,50.40
2019-02-25T16:12:15.921Z,48.73
2019-02-25T16:14:49.269Z,50.40
2019-02-25T16:17:22.296Z,51.20
2019-02-25T16:19:54.508Z,49.73
2019-02-25T16:22:29.559Z,53.63
2019-02-25T16:25:00.571Z,52.73
2019-02-25T16:27:33.889Z,52.47
2019-02-25T16:30:07.064Z,51.93
2019-02-25T16:32:40.114Z,49.90
2019-02-25T16:35:12.614Z,50.20
2019-02-25T16:37:45.370Z,62.90
2019-02-25T16:40:17.079Z,53.37
2019-02-25T16:42:49.280Z,49.33
2019-02-25T16:45:21.279Z,49.47
2019-02-25T16:47:53.267Z,51.73
2019-02-25T16:50:25.219Z,51.03
2019-02-25T16:52:57.407Z,50.90
2019-02-25T16:55:29.063Z,51.07
2019-02-25T16:58:03.042Z,50.97
2019-02-25T17:00:36.637Z,52.10
2019-02-25T17:03:09.279Z,50.33
2019-02-25T17:05:42.818Z,49.33
2019-02-25T17:08:19.219Z,48.63
2019-02-25T17:10:51.903Z,48.77
2019-02-25T17:13:24.689Z,49.60
2019-02-25T17:15:57.000Z,48.10
2019-02-25T17:18:30.916Z,47.73
2019-02-25T17:21:02.409Z,44.87
2019-02-25T17:23:34.863Z,46.73
2019-02-25T17:26:09.957Z,45.77
2019-02-25T17:28:41.369Z,46.00
2019-02-25T17:31:14.347Z,43.33
2019-02-25T17:33:49.085Z,44.27
2019-02-25T17:36:20.489Z,43.83
2019-02-25T17:38:52.479Z,44.70
2019-02-25T17:41:24.239Z,43.60
2019-02-25T17:43:57.079Z,42.90
2019-02-25T17:46:32.640Z,46.23
2019-02-25T17:49:02.798Z,45.07
2019-02-25T17:51:34.549Z,45.83
2019-02-25T17:54:07.941Z,49.10
2019-02-25T17:56:40.966Z,47.50
2019-02-25T17:59:13.639Z,50.43
2019-02-25T18:01:46.309Z,48.57
2019-02-25T18:04:18.647Z,48.20
2019-02-25T18:06:50.391Z,54.73
2019-02-25T18:09:22.631Z,49.67
2019-02-25T18:11:55.799Z,49.97
2019-02-25T18:14:27.787Z,49.00
2019-02-25T18:16:59.600Z,49.13
2019-02-25T18:19:31.659Z,48.83
2019-02-25T18:22:03.492Z,48.07
2019-02-25T18:24:35.179Z,48.77
2019-02-25T18:27:08.384Z,47.67
2019-02-25T18:29:41.380Z,49.60
2019-02-25T18:32:13.557Z,46.40
2019-02-25T18:34:45.527Z,44.03
2019-02-25T18:37:17.736Z,44.00
2019-02-25T18:39:50.121Z,43.67
2019-02-25T18:42:23.079Z,44.77
2019-02-25T18:44:55.549Z,45.37
2019-02-25T18:47:27.603Z,44.70
2019-02-25T18:50:00.945Z,44.83
2019-02-25T18:52:35.806Z,46.90
2019-02-25T18:55:08.957Z,46.63
2019-02-25T18:57:42.179Z,46.80
2019-02-25T19:00:22.147Z,46.23
2019-02-25T19:02:56.268Z,47.27
2019-02-25T19:05:31.451Z,47.07
2019-02-25T19:08:05.189Z,43.47
2019-02-25T19:10:41.282Z,44.03
2019-02-25T19:13:13.326Z,46.20
2019-02-25T19:15:48.760Z,44.53
2019-02-25T19:18:20.596Z,46.90
2019-02-25T19:20:52.261Z,47.53
2019-02-25T19:23:24.845Z,46.00
2019-02-25T19:25:56.579Z,44.33
2019-02-25T19:28:30.220Z,52.20
2019-02-25T19:31:03.513Z,48.93
2019-02-25T19:33:37.121Z,47.20
2019-02-25T19:36:10.534Z,48.63
2019-02-25T19:38:45.666Z,45.27
2019-02-25T19:41:20.652Z,45.97
2019-02-25T19:43:59.127Z,44.73
2019-02-25T19:46:27.109Z,45.50
2019-02-25T19:48:59.109Z,43.83
2019-02-25T19:51:33.090Z,43.60
2019-02-25T19:54:07.064Z,55.77
2019-02-25T19:56:38.807Z,48.13
2019-02-25T19:59:11.217Z,46.37
2019-02-25T20:01:43.470Z,44.80
2019-02-25T20:04:16.936Z,46.53
2019-02-25T20:06:51.366Z,44.03
2019-02-25T20:09:24.240Z,44.07
2019-02-25T20:11:57.352Z,42.77
2019-02-25T20:14:31.431Z,43.67
2019-02-25T20:17:02.941Z,43.70
2019-02-25T20:19:34.987Z,45.47
2019-02-25T20:22:07.804Z,47.80
2019-02-25T20:24:44.319Z,45.57
2019-02-25T20:27:14.949Z,47.23
2019-02-25T20:29:47.912Z,49.57
2019-02-25T20:32:20.715Z,47.87
2019-02-25T20:34:54.465Z,47.80
2019-02-25T20:37:27.455Z,47.87
2019-02-25T20:40:00.705Z,48.03
2019-02-25T20:42:32.790Z,51.13
2019-02-25T20:45:05.073Z,49.30
2019-02-25T20:47:38.353Z,50.57
2019-02-25T20:50:14.417Z,50.23
2019-02-25T20:52:45.871Z,51.83
2019-02-25T20:55:17.703Z,49.40
2019-02-25T20:57:49.480Z,54.70
2019-02-25T21:00:22.072Z,55.83
2019-02-25T21:02:53.917Z,52.93
2019-02-25T21:05:27.364Z,53.77
2019-02-25T21:08:00.124Z,54.67
2019-02-25T21:10:35.653Z,53.33
2019-02-25T21:13:07.203Z,57.77
2019-02-25T21:15:40.641Z,56.47
2019-02-25T21:18:12.283Z,59.57
2019-02-25T21:20:45.246Z,57.67
2019-02-25T21:23:17.742Z,57.57
2019-02-25T21:25:53.520Z,57.37
2019-02-25T21:28:30.980Z,59.67
2019-02-25T21:31:02.439Z,56.77
2019-02-25T21:33:34.088Z,56.50
2019-02-25T21:36:06.031Z,58.77
2019-02-25T21:38:37.779Z,58.37
2019-02-25T21:41:10.996Z,59.23
2019-02-25T21:43:43.577Z,58.47
2019-02-25T21:46:19.800Z,62.23
2019-02-25T21:48:53.131Z,60.70
2019-02-25T21:51:24.204Z,61.67
2019-02-25T21:53:58.085Z,62.60
2019-02-25T21:56:29.480Z,62.50
2019-02-25T21:59:01.279Z,63.63
2019-02-25T22:01:34.524Z,59.10
2019-02-25T22:04:09.288Z,62.40
2019-02-25T22:06:40.883Z,58.73
2019-02-25T22:09:12.922Z,58.90
2019-02-25T22:11:44.631Z,58.00
2019-02-25T22:14:18.230Z,57.03
2019-02-25T22:16:52.110Z,58.53
2019-02-25T22:19:23.313Z,55.37
2019-02-25T22:21:57.565Z,55.40
2019-02-25T22:24:30.014Z,58.13
2019-02-25T22:27:01.917Z,55.77
2019-02-25T22:29:36.117Z,58.93
2019-02-25T22:32:08.642Z,55.07
2019-02-25T22:34:40.284Z,55.40
2019-02-25T22:37:14.554Z,56.33
2019-02-25T22:39:46.100Z,58.63
2019-02-25T22:42:18.709Z,59.33
2019-02-25T22:44:51.689Z,58.90
2019-02-25T22:47:24.044Z,60.23
2019-02-25T22:49:55.839Z,58.27
2019-02-25T22:52:29.256Z,59.13
2019-02-25T22:55:00.896Z,61.00
2019-02-25T22:57:32.631Z,59.27
2019-02-25T23:00:06.408Z,60.60
2019-02-25T23:02:43.097Z,58.53
2019-02-25T23:05:15.186Z,59.13
2019-02-25T23:07:48.137Z,62.87
2019-02-25T23:10:21.962Z,58.30
2019-02-25T23:12:54.885Z,60.60
2019-02-25T23:15:28.158Z,61.33
2019-02-25T23:18:05.388Z,61.47
2019-02-25T23:20:34.041Z,59.70
2019-02-25T23:23:06.680Z,60.53
2019-02-25T23:25:38.794Z,62.03
2019-02-25T23:28:10.699Z,60.03
2019-02-25T23:30:42.435Z,59.13
2019-02-25T23:33:14.456Z,59.73
2019-02-25T23:35:49.065Z,57.60
2019-02-25T23:38:21.107Z,58.40
2019-02-25T23:40:52.685Z,59.23
2019-02-25T23:43:25.401Z,60.90
2019-02-25T23:45:57.995Z,58.43
2019-02-25T23:48:33.005Z,58.10
2019-02-25T23:51:03.980Z,58.73
2019-02-25T23:53:36.000Z,62.87
2019-02-25T23:56:07.681Z,56.63
2019-02-25T23:58:42.353Z,55.70
